sensor_id;sensor_type;location;lat;lon;timestamp;P1;durP1;ratioP1;P2;durP2;ratioP2
25497;SDS011;13406;53.380;7.226;2023-05-21T00:00:41;4.10;;;2.47;;
25497;SDS011;13406;53.380;7.226;2023-05-21T00:03:07;3.17;;;2.60;;
25497;SDS011;13406;53.380;7.226;2023-05-21T00:05:37;3.70;;;2.50;;
25497;SDS011;13406;53.380;7.226;2023-05-21T00:08:04;3.00;;;2.47;;
25497;SDS011;13406;53.380;7.226;2023-05-21T00:10:30;3.77;;;2.60;;
25497;SDS011;13406;53.380;7.226;2023-05-21T00:12:55;3.53;;;2.67;;
25497;SDS011;13406;53.380;7.226;2023-05-21T00:15:20;3.17;;;2.87;;
25497;SDS011;13406;53.380;7.226;2023-05-21T00:17:46;3.33;;;2.90;;
25497;SDS011;13406;53.380;7.226;2023-05-21T00:20:11;3.43;;;3.07;;
25497;SDS011;13406;53.380;7.226;2023-05-21T00:22:37;4.60;;;2.60;;
25497;SDS011;13406;53.380;7.226;2023-05-21T00:25:02;3.73;;;3.00;;
25497;SDS011;13406;53.380;7.226;2023-05-21T00:27:28;4.93;;;3.20;;
25497;SDS011;13406;53.380;7.226;2023-05-21T00:29:54;5.27;;;3.13;;
25497;SDS011;13406;53.380;7.226;2023-05-21T00:32:19;4.90;;;3.10;;
25497;SDS011;13406;53.380;7.226;2023-05-21T00:34:45;3.40;;;2.90;;
25497;SDS011;13406;53.380;7.226;2023-05-21T00:37:11;3.77;;;2.90;;
25497;SDS011;13406;53.380;7.226;2023-05-21T00:39:39;3.60;;;3.07;;
25497;SDS011;13406;53.380;7.226;2023-05-21T00:42:05;6.47;;;3.27;;
25497;SDS011;13406;53.380;7.226;2023-05-21T00:44:30;3.03;;;2.63;;
25497;SDS011;13406;53.380;7.226;2023-05-21T00:47:02;5.47;;;2.70;;
25497;SDS011;13406;53.380;7.226;2023-05-21T00:49:28;3.63;;;3.33;;
25497;SDS011;13406;53.380;7.226;2023-05-21T00:51:55;2.97;;;2.63;;
25497;SDS011;13406;53.380;7.226;2023-05-21T00:54:21;4.30;;;3.30;;
25497;SDS011;13406;53.380;7.226;2023-05-21T00:56:48;4.50;;;3.13;;
25497;SDS011;13406;53.380;7.226;2023-05-21T00:59:14;3.53;;;3.23;;
25497;SDS011;13406;53.380;7.226;2023-05-21T01:01:42;7.80;;;3.20;;
25497;SDS011;13406;53.380;7.226;2023-05-21T01:04:09;3.30;;;2.87;;
25497;SDS011;13406;53.380;7.226;2023-05-21T01:06:35;5.27;;;3.23;;
25497;SDS011;13406;53.380;7.226;2023-05-21T01:09:02;3.70;;;3.00;;
25497;SDS011;13406;53.380;7.226;2023-05-21T01:11:36;3.07;;;2.77;;
25497;SDS011;13406;53.380;7.226;2023-05-21T01:14:12;4.50;;;2.80;;
25497;SDS011;13406;53.380;7.226;2023-05-21T01:16:40;4.60;;;3.20;;
25497;SDS011;13406;53.380;7.226;2023-05-21T01:19:09;4.73;;;3.80;;
25497;SDS011;13406;53.380;7.226;2023-05-21T01:21:40;5.00;;;3.50;;
25497;SDS011;13406;53.380;7.226;2023-05-21T01:24:08;3.77;;;3.00;;
25497;SDS011;13406;53.380;7.226;2023-05-21T01:26:34;4.20;;;3.30;;
25497;SDS011;13406;53.380;7.226;2023-05-21T01:29:03;7.37;;;3.30;;
25497;SDS011;13406;53.380;7.226;2023-05-21T01:31:36;4.33;;;3.13;;
25497;SDS011;13406;53.380;7.226;2023-05-21T01:34:25;5.80;;;3.27;;
25497;SDS011;13406;53.380;7.226;2023-05-21T01:37:01;3.83;;;2.97;;
25497;SDS011;13406;53.380;7.226;2023-05-21T01:39:36;3.60;;;3.10;;
25497;SDS011;13406;53.380;7.226;2023-05-21T01:42:05;4.73;;;3.40;;
25497;SDS011;13406;53.380;7.226;2023-05-21T01:44:34;4.30;;;3.30;;
25497;SDS011;13406;53.380;7.226;2023-05-21T01:47:00;4.90;;;2.97;;
25497;SDS011;13406;53.380;7.226;2023-05-21T01:49:27;8.50;;;3.07;;
25497;SDS011;13406;53.380;7.226;2023-05-21T01:51:53;4.43;;;3.07;;
25497;SDS011;13406;53.380;7.226;2023-05-21T01:54:19;4.10;;;3.20;;
25497;SDS011;13406;53.380;7.226;2023-05-21T01:56:45;6.30;;;3.80;;
25497;SDS011;13406;53.380;7.226;2023-05-21T01:59:13;4.03;;;3.03;;
25497;SDS011;13406;53.380;7.226;2023-05-21T02:01:41;6.40;;;3.10;;
25497;SDS011;13406;53.380;7.226;2023-05-21T02:04:06;3.97;;;3.30;;
25497;SDS011;13406;53.380;7.226;2023-05-21T02:06:32;5.90;;;3.70;;
25497;SDS011;13406;53.380;7.226;2023-05-21T02:08:59;5.13;;;3.33;;
25497;SDS011;13406;53.380;7.226;2023-05-21T02:11:25;3.30;;;2.73;;
25497;SDS011;13406;53.380;7.226;2023-05-21T02:13:51;6.10;;;3.40;;
25497;SDS011;13406;53.380;7.226;2023-05-21T02:16:16;5.50;;;3.40;;
25497;SDS011;13406;53.380;7.226;2023-05-21T02:18:43;4.40;;;3.10;;
25497;SDS011;13406;53.380;7.226;2023-05-21T02:21:09;4.70;;;3.40;;
25497;SDS011;13406;53.380;7.226;2023-05-21T02:23:37;4.13;;;2.90;;
25497;SDS011;13406;53.380;7.226;2023-05-21T02:26:03;4.03;;;2.70;;
25497;SDS011;13406;53.380;7.226;2023-05-21T02:28:28;6.10;;;2.83;;
25497;SDS011;13406;53.380;7.226;2023-05-21T02:30:54;4.60;;;2.97;;
25497;SDS011;13406;53.380;7.226;2023-05-21T02:33:20;4.10;;;2.70;;
25497;SDS011;13406;53.380;7.226;2023-05-21T02:35:46;5.30;;;3.10;;
25497;SDS011;13406;53.380;7.226;2023-05-21T02:38:12;5.73;;;3.50;;
25497;SDS011;13406;53.380;7.226;2023-05-21T02:40:38;8.40;;;2.60;;
25497;SDS011;13406;53.380;7.226;2023-05-21T02:43:03;6.50;;;2.93;;
25497;SDS011;13406;53.380;7.226;2023-05-21T02:45:29;6.50;;;3.00;;
25497;SDS011;13406;53.380;7.226;2023-05-21T02:47:54;6.73;;;3.07;;
25497;SDS011;13406;53.380;7.226;2023-05-21T02:50:20;8.17;;;4.00;;
25497;SDS011;13406;53.380;7.226;2023-05-21T02:52:46;4.70;;;3.00;;
25497;SDS011;13406;53.380;7.226;2023-05-21T02:55:12;5.80;;;3.07;;
25497;SDS011;13406;53.380;7.226;2023-05-21T02:57:37;6.63;;;3.00;;
25497;SDS011;13406;53.380;7.226;2023-05-21T03:00:03;7.10;;;3.30;;
25497;SDS011;13406;53.380;7.226;2023-05-21T03:02:30;5.50;;;3.10;;
25497;SDS011;13406;53.380;7.226;2023-05-21T03:04:56;6.00;;;3.40;;
25497;SDS011;13406;53.380;7.226;2023-05-21T03:07:21;8.10;;;3.30;;
25497;SDS011;13406;53.380;7.226;2023-05-21T03:09:48;7.03;;;3.43;;
25497;SDS011;13406;53.380;7.226;2023-05-21T03:12:13;5.43;;;3.13;;
25497;SDS011;13406;53.380;7.226;2023-05-21T03:14:39;7.63;;;3.40;;
25497;SDS011;13406;53.380;7.226;2023-05-21T03:17:08;5.30;;;3.07;;
25497;SDS011;13406;53.380;7.226;2023-05-21T03:19:37;8.90;;;3.13;;
25497;SDS011;13406;53.380;7.226;2023-05-21T03:22:04;6.50;;;2.93;;
25497;SDS011;13406;53.380;7.226;2023-05-21T03:24:30;3.78;;;2.80;;
25497;SDS011;13406;53.380;7.226;2023-05-21T03:26:57;5.23;;;3.17;;
25497;SDS011;13406;53.380;7.226;2023-05-21T03:29:25;4.90;;;3.20;;
25497;SDS011;13406;53.380;7.226;2023-05-21T03:31:51;4.00;;;3.07;;
25497;SDS011;13406;53.380;7.226;2023-05-21T03:34:18;6.00;;;3.33;;
25497;SDS011;13406;53.380;7.226;2023-05-21T03:36:47;5.23;;;3.30;;
25497;SDS011;13406;53.380;7.226;2023-05-21T03:39:13;6.13;;;2.90;;
25497;SDS011;13406;53.380;7.226;2023-05-21T03:41:38;4.63;;;2.73;;
25497;SDS011;13406;53.380;7.226;2023-05-21T03:44:04;3.53;;;2.67;;
25497;SDS011;13406;53.380;7.226;2023-05-21T03:46:29;7.30;;;3.67;;
25497;SDS011;13406;53.380;7.226;2023-05-21T03:48:55;5.60;;;3.00;;
25497;SDS011;13406;53.380;7.226;2023-05-21T03:51:22;4.70;;;2.90;;
25497;SDS011;13406;53.380;7.226;2023-05-21T03:53:48;5.57;;;2.80;;
25497;SDS011;13406;53.380;7.226;2023-05-21T03:56:14;5.10;;;2.67;;
25497;SDS011;13406;53.380;7.226;2023-05-21T03:58:40;5.17;;;2.97;;
25497;SDS011;13406;53.380;7.226;2023-05-21T04:01:05;5.47;;;3.00;;
25497;SDS011;13406;53.380;7.226;2023-05-21T04:03:32;4.50;;;2.90;;
25497;SDS011;13406;53.380;7.226;2023-05-21T04:05:59;5.40;;;3.10;;
25497;SDS011;13406;53.380;7.226;2023-05-21T04:08:25;5.90;;;2.70;;
25497;SDS011;13406;53.380;7.226;2023-05-21T04:10:51;4.33;;;3.03;;
25497;SDS011;13406;53.380;7.226;2023-05-21T04:13:16;4.40;;;3.03;;
25497;SDS011;13406;53.380;7.226;2023-05-21T04:15:42;5.27;;;2.70;;
25497;SDS011;13406;53.380;7.226;2023-05-21T04:18:08;4.63;;;2.57;;
25497;SDS011;13406;53.380;7.226;2023-05-21T04:20:34;5.20;;;2.90;;
25497;SDS011;13406;53.380;7.226;2023-05-21T04:23:00;5.60;;;2.60;;
25497;SDS011;13406;53.380;7.226;2023-05-21T04:25:27;5.43;;;2.30;;
25497;SDS011;13406;53.380;7.226;2023-05-21T04:27:52;5.33;;;2.30;;
25497;SDS011;13406;53.380;7.226;2023-05-21T04:30:18;5.77;;;2.97;;
25497;SDS011;13406;53.380;7.226;2023-05-21T04:32:44;5.43;;;2.53;;
25497;SDS011;13406;53.380;7.226;2023-05-21T04:35:10;6.33;;;2.70;;
25497;SDS011;13406;53.380;7.226;2023-05-21T04:37:36;3.70;;;2.50;;
25497;SDS011;13406;53.380;7.226;2023-05-21T04:40:06;3.90;;;2.30;;
25497;SDS011;13406;53.380;7.226;2023-05-21T04:42:35;3.50;;;2.50;;
25497;SDS011;13406;53.380;7.226;2023-05-21T04:45:00;5.10;;;2.83;;
25497;SDS011;13406;53.380;7.226;2023-05-21T04:47:26;6.13;;;2.30;;
25497;SDS011;13406;53.380;7.226;2023-05-21T04:49:59;6.00;;;2.70;;
25497;SDS011;13406;53.380;7.226;2023-05-21T04:52:26;4.70;;;2.60;;
25497;SDS011;13406;53.380;7.226;2023-05-21T04:54:51;4.53;;;2.33;;
25497;SDS011;13406;53.380;7.226;2023-05-21T04:57:18;4.30;;;2.50;;
25497;SDS011;13406;53.380;7.226;2023-05-21T04:59:43;4.47;;;2.47;;
25497;SDS011;13406;53.380;7.226;2023-05-21T05:02:09;5.43;;;3.10;;
25497;SDS011;13406;53.380;7.226;2023-05-21T05:04:34;3.97;;;2.60;;
25497;SDS011;13406;53.380;7.226;2023-05-21T05:07:00;4.13;;;2.40;;
25497;SDS011;13406;53.380;7.226;2023-05-21T05:09:25;5.70;;;2.77;;
25497;SDS011;13406;53.380;7.226;2023-05-21T05:11:51;3.67;;;2.43;;
25497;SDS011;13406;53.380;7.226;2023-05-21T05:14:16;3.43;;;2.10;;
25497;SDS011;13406;53.380;7.226;2023-05-21T05:16:42;2.83;;;2.27;;
25497;SDS011;13406;53.380;7.226;2023-05-21T05:19:07;3.60;;;2.57;;
25497;SDS011;13406;53.380;7.226;2023-05-21T05:21:33;2.77;;;2.17;;
25497;SDS011;13406;53.380;7.226;2023-05-21T05:23:58;5.20;;;2.57;;
25497;SDS011;13406;53.380;7.226;2023-05-21T05:26:24;5.37;;;2.53;;
25497;SDS011;13406;53.380;7.226;2023-05-21T05:28:50;3.77;;;2.70;;
25497;SDS011;13406;53.380;7.226;2023-05-21T05:31:15;4.37;;;2.23;;
25497;SDS011;13406;53.380;7.226;2023-05-21T05:33:41;3.97;;;2.30;;
25497;SDS011;13406;53.380;7.226;2023-05-21T05:36:06;3.50;;;2.37;;
25497;SDS011;13406;53.380;7.226;2023-05-21T05:38:32;4.83;;;2.40;;
25497;SDS011;13406;53.380;7.226;2023-05-21T05:40:59;5.50;;;3.20;;
25497;SDS011;13406;53.380;7.226;2023-05-21T05:43:24;4.27;;;2.30;;
25497;SDS011;13406;53.380;7.226;2023-05-21T05:45:50;5.60;;;2.60;;
25497;SDS011;13406;53.380;7.226;2023-05-21T05:48:16;5.77;;;3.00;;
25497;SDS011;13406;53.380;7.226;2023-05-21T05:50:41;4.97;;;2.20;;
25497;SDS011;13406;53.380;7.226;2023-05-21T05:53:08;5.63;;;2.93;;
25497;SDS011;13406;53.380;7.226;2023-05-21T05:55:33;6.07;;;2.93;;
25497;SDS011;13406;53.380;7.226;2023-05-21T05:57:59;5.57;;;2.50;;
25497;SDS011;13406;53.380;7.226;2023-05-21T06:00:24;7.20;;;2.73;;
25497;SDS011;13406;53.380;7.226;2023-05-21T06:02:50;5.10;;;2.33;;
25497;SDS011;13406;53.380;7.226;2023-05-21T06:05:15;6.60;;;2.03;;
25497;SDS011;13406;53.380;7.226;2023-05-21T06:07:41;3.27;;;2.60;;
25497;SDS011;13406;53.380;7.226;2023-05-21T06:10:06;6.97;;;2.87;;
25497;SDS011;13406;53.380;7.226;2023-05-21T06:12:32;5.77;;;2.40;;
25497;SDS011;13406;53.380;7.226;2023-05-21T06:14:58;3.30;;;2.33;;
25497;SDS011;13406;53.380;7.226;2023-05-21T06:17:23;4.20;;;2.33;;
25497;SDS011;13406;53.380;7.226;2023-05-21T06:19:49;5.33;;;2.30;;
25497;SDS011;13406;53.380;7.226;2023-05-21T06:22:14;2.90;;;1.73;;
25497;SDS011;13406;53.380;7.226;2023-05-21T06:24:40;3.70;;;2.37;;
25497;SDS011;13406;53.380;7.226;2023-05-21T06:27:05;3.53;;;2.03;;
25497;SDS011;13406;53.380;7.226;2023-05-21T06:29:31;4.47;;;1.80;;
25497;SDS011;13406;53.380;7.226;2023-05-21T06:31:56;3.53;;;1.80;;
25497;SDS011;13406;53.380;7.226;2023-05-21T06:34:22;3.13;;;2.30;;
25497;SDS011;13406;53.380;7.226;2023-05-21T06:36:47;4.10;;;2.60;;
25497;SDS011;13406;53.380;7.226;2023-05-21T06:39:12;3.53;;;2.03;;
25497;SDS011;13406;53.380;7.226;2023-05-21T06:41:38;4.87;;;2.60;;
25497;SDS011;13406;53.380;7.226;2023-05-21T06:44:03;3.60;;;2.13;;
25497;SDS011;13406;53.380;7.226;2023-05-21T06:46:29;3.73;;;2.20;;
25497;SDS011;13406;53.380;7.226;2023-05-21T06:48:55;2.97;;;2.07;;
25497;SDS011;13406;53.380;7.226;2023-05-21T06:51:20;4.80;;;2.30;;
25497;SDS011;13406;53.380;7.226;2023-05-21T06:53:46;3.80;;;2.10;;
25497;SDS011;13406;53.380;7.226;2023-05-21T06:56:12;3.70;;;2.40;;
25497;SDS011;13406;53.380;7.226;2023-05-21T06:58:37;3.83;;;2.20;;
25497;SDS011;13406;53.380;7.226;2023-05-21T07:01:03;3.73;;;2.20;;
25497;SDS011;13406;53.380;7.226;2023-05-21T07:03:28;3.80;;;2.23;;
25497;SDS011;13406;53.380;7.226;2023-05-21T07:05:53;4.30;;;2.63;;
25497;SDS011;13406;53.380;7.226;2023-05-21T07:08:19;2.80;;;2.10;;
25497;SDS011;13406;53.380;7.226;2023-05-21T07:10:44;7.10;;;2.43;;
25497;SDS011;13406;53.380;7.226;2023-05-21T07:13:10;3.00;;;1.97;;
25497;SDS011;13406;53.380;7.226;2023-05-21T07:15:36;2.83;;;2.30;;
25497;SDS011;13406;53.380;7.226;2023-05-21T07:18:01;3.10;;;1.60;;
25497;SDS011;13406;53.380;7.226;2023-05-21T07:20:27;3.70;;;2.23;;
25497;SDS011;13406;53.380;7.226;2023-05-21T07:22:53;2.40;;;1.93;;
25497;SDS011;13406;53.380;7.226;2023-05-21T07:25:19;3.60;;;1.93;;
25497;SDS011;13406;53.380;7.226;2023-05-21T07:27:44;4.13;;;2.00;;
25497;SDS011;13406;53.380;7.226;2023-05-21T07:30:10;3.20;;;2.20;;
25497;SDS011;13406;53.380;7.226;2023-05-21T07:32:36;4.20;;;2.00;;
25497;SDS011;13406;53.380;7.226;2023-05-21T07:35:01;3.40;;;2.40;;
25497;SDS011;13406;53.380;7.226;2023-05-21T07:37:27;5.10;;;2.00;;
25497;SDS011;13406;53.380;7.226;2023-05-21T07:39:53;3.37;;;2.40;;
25497;SDS011;13406;53.380;7.226;2023-05-21T07:42:20;4.43;;;2.00;;
25497;SDS011;13406;53.380;7.226;2023-05-21T07:44:46;3.00;;;2.20;;
25497;SDS011;13406;53.380;7.226;2023-05-21T07:47:11;3.33;;;2.10;;
25497;SDS011;13406;53.380;7.226;2023-05-21T07:49:37;7.33;;;1.97;;
25497;SDS011;13406;53.380;7.226;2023-05-21T07:52:02;3.20;;;1.93;;
25497;SDS011;13406;53.380;7.226;2023-05-21T07:54:28;3.20;;;2.03;;
25497;SDS011;13406;53.380;7.226;2023-05-21T07:56:53;3.20;;;2.17;;
25497;SDS011;13406;53.380;7.226;2023-05-21T07:59:19;3.60;;;2.17;;
25497;SDS011;13406;53.380;7.226;2023-05-21T08:01:44;3.23;;;2.10;;
25497;SDS011;13406;53.380;7.226;2023-05-21T08:04:10;3.83;;;2.23;;
25497;SDS011;13406;53.380;7.226;2023-05-21T08:06:36;3.23;;;2.23;;
25497;SDS011;13406;53.380;7.226;2023-05-21T08:09:02;4.27;;;2.33;;
25497;SDS011;13406;53.380;7.226;2023-05-21T08:11:28;5.87;;;2.30;;
25497;SDS011;13406;53.380;7.226;2023-05-21T08:13:54;4.33;;;2.20;;
25497;SDS011;13406;53.380;7.226;2023-05-21T08:16:20;4.10;;;2.07;;
25497;SDS011;13406;53.380;7.226;2023-05-21T08:18:47;4.27;;;2.50;;
25497;SDS011;13406;53.380;7.226;2023-05-21T08:21:13;2.97;;;1.87;;
25497;SDS011;13406;53.380;7.226;2023-05-21T08:23:39;2.97;;;2.03;;
25497;SDS011;13406;53.380;7.226;2023-05-21T08:26:04;3.87;;;2.00;;
25497;SDS011;13406;53.380;7.226;2023-05-21T08:28:31;5.20;;;2.40;;
25497;SDS011;13406;53.380;7.226;2023-05-21T08:30:56;2.63;;;2.03;;
25497;SDS011;13406;53.380;7.226;2023-05-21T08:33:22;2.57;;;1.90;;
25497;SDS011;13406;53.380;7.226;2023-05-21T08:35:47;5.93;;;2.40;;
25497;SDS011;13406;53.380;7.226;2023-05-21T08:38:13;3.40;;;2.50;;
25497;SDS011;13406;53.380;7.226;2023-05-21T08:40:40;4.00;;;2.43;;
25497;SDS011;13406;53.380;7.226;2023-05-21T08:43:06;4.90;;;2.53;;
25497;SDS011;13406;53.380;7.226;2023-05-21T08:45:37;4.10;;;2.37;;
25497;SDS011;13406;53.380;7.226;2023-05-21T08:48:06;2.60;;;2.00;;
25497;SDS011;13406;53.380;7.226;2023-05-21T08:50:34;6.57;;;2.40;;
25497;SDS011;13406;53.380;7.226;2023-05-21T08:53:00;5.93;;;2.23;;
25497;SDS011;13406;53.380;7.226;2023-05-21T08:55:25;5.47;;;2.00;;
25497;SDS011;13406;53.380;7.226;2023-05-21T08:57:52;4.40;;;2.80;;
25497;SDS011;13406;53.380;7.226;2023-05-21T09:00:18;3.20;;;2.17;;
25497;SDS011;13406;53.380;7.226;2023-05-21T09:02:48;6.10;;;1.97;;
25497;SDS011;13406;53.380;7.226;2023-05-21T09:05:15;3.33;;;2.37;;
25497;SDS011;13406;53.380;7.226;2023-05-21T09:07:49;4.80;;;2.60;;
25497;SDS011;13406;53.380;7.226;2023-05-21T09:10:17;5.20;;;2.70;;
25497;SDS011;13406;53.380;7.226;2023-05-21T09:12:47;4.10;;;2.50;;
25497;SDS011;13406;53.380;7.226;2023-05-21T09:15:13;4.40;;;2.60;;
25497;SDS011;13406;53.380;7.226;2023-05-21T09:17:38;4.80;;;2.50;;
25497;SDS011;13406;53.380;7.226;2023-05-21T09:20:05;5.53;;;2.60;;
25497;SDS011;13406;53.380;7.226;2023-05-21T09:22:35;3.60;;;2.77;;
25497;SDS011;13406;53.380;7.226;2023-05-21T09:25:05;4.67;;;2.57;;
25497;SDS011;13406;53.380;7.226;2023-05-21T09:27:34;5.03;;;2.80;;
25497;SDS011;13406;53.380;7.226;2023-05-21T09:30:00;7.80;;;3.10;;
25497;SDS011;13406;53.380;7.226;2023-05-21T09:32:27;3.37;;;2.67;;
25497;SDS011;13406;53.380;7.226;2023-05-21T09:34:53;6.03;;;2.80;;
25497;SDS011;13406;53.380;7.226;2023-05-21T09:37:18;5.03;;;2.90;;
25497;SDS011;13406;53.380;7.226;2023-05-21T09:39:45;2.93;;;2.20;;
25497;SDS011;13406;53.380;7.226;2023-05-21T09:42:11;4.07;;;2.43;;
25497;SDS011;13406;53.380;7.226;2023-05-21T09:44:37;6.63;;;2.90;;
25497;SDS011;13406;53.380;7.226;2023-05-21T09:47:03;5.13;;;3.30;;
25497;SDS011;13406;53.380;7.226;2023-05-21T09:49:28;3.00;;;2.60;;
25497;SDS011;13406;53.380;7.226;2023-05-21T09:51:55;4.47;;;3.00;;
25497;SDS011;13406;53.380;7.226;2023-05-21T09:54:22;5.13;;;3.10;;
25497;SDS011;13406;53.380;7.226;2023-05-21T09:56:48;3.77;;;2.90;;
25497;SDS011;13406;53.380;7.226;2023-05-21T09:59:15;3.60;;;2.70;;
25497;SDS011;13406;53.380;7.226;2023-05-21T10:01:41;3.73;;;2.83;;
25497;SDS011;13406;53.380;7.226;2023-05-21T10:04:08;4.00;;;2.90;;
25497;SDS011;13406;53.380;7.226;2023-05-21T10:06:36;4.87;;;3.40;;
25497;SDS011;13406;53.380;7.226;2023-05-21T10:09:06;6.00;;;3.00;;
25497;SDS011;13406;53.380;7.226;2023-05-21T10:11:35;4.60;;;2.73;;
25497;SDS011;13406;53.380;7.226;2023-05-21T10:16:34;7.30;;;3.53;;
25497;SDS011;13406;53.380;7.226;2023-05-21T10:19:00;6.20;;;3.90;;
25497;SDS011;13406;53.380;7.226;2023-05-21T10:21:27;4.57;;;3.50;;
25497;SDS011;13406;53.380;7.226;2023-05-21T10:23:54;5.03;;;3.00;;
25497;SDS011;13406;53.380;7.226;2023-05-21T10:26:22;7.63;;;4.50;;
25497;SDS011;13406;53.380;7.226;2023-05-21T10:28:48;5.67;;;3.30;;
25497;SDS011;13406;53.380;7.226;2023-05-21T10:31:15;8.10;;;4.30;;
25497;SDS011;13406;53.380;7.226;2023-05-21T10:33:41;4.27;;;3.17;;
25497;SDS011;13406;53.380;7.226;2023-05-21T10:36:07;5.47;;;4.10;;
25497;SDS011;13406;53.380;7.226;2023-05-21T10:38:33;6.90;;;3.57;;
25497;SDS011;13406;53.380;7.226;2023-05-21T10:41:00;6.23;;;4.20;;
25497;SDS011;13406;53.380;7.226;2023-05-21T10:46:23;8.87;;;4.57;;
25497;SDS011;13406;53.380;7.226;2023-05-21T10:49:22;6.13;;;4.30;;
25497;SDS011;13406;53.380;7.226;2023-05-21T10:55:30;6.30;;;4.00;;
25497;SDS011;13406;53.380;7.226;2023-05-21T11:00:53;5.27;;;4.10;;
25497;SDS011;13406;53.380;7.226;2023-05-21T11:03:19;6.10;;;3.90;;
25497;SDS011;13406;53.380;7.226;2023-05-21T11:05:50;7.53;;;5.10;;
25497;SDS011;13406;53.380;7.226;2023-05-21T11:08:21;5.93;;;4.50;;
25497;SDS011;13406;53.380;7.226;2023-05-21T11:10:51;5.80;;;4.03;;
25497;SDS011;13406;53.380;7.226;2023-05-21T11:13:22;6.27;;;5.40;;
25497;SDS011;13406;53.380;7.226;2023-05-21T11:21:08;7.97;;;6.30;;
25497;SDS011;13406;53.380;7.226;2023-05-21T11:26:21;6.97;;;6.23;;
25497;SDS011;13406;53.380;7.226;2023-05-21T11:29:11;14.03;;;6.80;;
25497;SDS011;13406;53.380;7.226;2023-05-21T11:31:35;7.03;;;6.33;;
25497;SDS011;13406;53.380;7.226;2023-05-21T11:34:10;8.30;;;6.70;;
25497;SDS011;13406;53.380;7.226;2023-05-21T11:36:40;7.93;;;6.87;;
25497;SDS011;13406;53.380;7.226;2023-05-21T11:39:17;6.97;;;5.90;;
25497;SDS011;13406;53.380;7.226;2023-05-21T11:41:52;8.93;;;7.10;;
25497;SDS011;13406;53.380;7.226;2023-05-21T11:44:38;8.50;;;6.53;;
25497;SDS011;13406;53.380;7.226;2023-05-21T11:47:07;7.67;;;6.50;;
25497;SDS011;13406;53.380;7.226;2023-05-21T11:49:34;8.93;;;6.37;;
25497;SDS011;13406;53.380;7.226;2023-05-21T11:52:00;8.30;;;6.07;;
25497;SDS011;13406;53.380;7.226;2023-05-21T11:54:27;6.90;;;5.87;;
25497;SDS011;13406;53.380;7.226;2023-05-21T11:57:10;15.60;;;7.73;;
25497;SDS011;13406;53.380;7.226;2023-05-21T11:59:40;10.23;;;6.80;;
25497;SDS011;13406;53.380;7.226;2023-05-21T12:02:05;11.20;;;7.63;;
25497;SDS011;13406;53.380;7.226;2023-05-21T12:04:32;8.77;;;7.10;;
25497;SDS011;13406;53.380;7.226;2023-05-21T12:07:02;8.43;;;6.97;;
25497;SDS011;13406;53.380;7.226;2023-05-21T12:09:29;9.60;;;7.57;;
25497;SDS011;13406;53.380;7.226;2023-05-21T12:11:54;8.07;;;6.57;;
25497;SDS011;13406;53.380;7.226;2023-05-21T12:14:20;8.80;;;7.07;;
25497;SDS011;13406;53.380;7.226;2023-05-21T12:16:45;8.83;;;7.07;;
25497;SDS011;13406;53.380;7.226;2023-05-21T12:19:11;10.03;;;7.30;;
25497;SDS011;13406;53.380;7.226;2023-05-21T12:21:36;9.70;;;8.20;;
25497;SDS011;13406;53.380;7.226;2023-05-21T12:24:02;9.40;;;7.40;;
25497;SDS011;13406;53.380;7.226;2023-05-21T12:26:27;11.80;;;8.10;;
25497;SDS011;13406;53.380;7.226;2023-05-21T12:28:54;8.50;;;7.30;;
25497;SDS011;13406;53.380;7.226;2023-05-21T12:31:20;12.10;;;8.33;;
25497;SDS011;13406;53.380;7.226;2023-05-21T12:33:50;11.63;;;8.60;;
25497;SDS011;13406;53.380;7.226;2023-05-21T12:36:22;12.23;;;10.00;;
25497;SDS011;13406;53.380;7.226;2023-05-21T12:38:50;12.10;;;10.10;;
25497;SDS011;13406;53.380;7.226;2023-05-21T12:41:16;11.63;;;10.40;;
25497;SDS011;13406;53.380;7.226;2023-05-21T12:43:42;13.13;;;9.70;;
25497;SDS011;13406;53.380;7.226;2023-05-21T12:46:09;12.40;;;10.10;;
25497;SDS011;13406;53.380;7.226;2023-05-21T12:48:38;10.90;;;8.90;;
25497;SDS011;13406;53.380;7.226;2023-05-21T12:51:14;14.00;;;10.20;;
25497;SDS011;13406;53.380;7.226;2023-05-21T12:53:42;12.17;;;10.10;;
25497;SDS011;13406;53.380;7.226;2023-05-21T12:56:11;14.17;;;11.00;;
25497;SDS011;13406;53.380;7.226;2023-05-21T12:58:38;13.87;;;11.50;;
25497;SDS011;13406;53.380;7.226;2023-05-21T13:01:05;11.43;;;8.93;;
25497;SDS011;13406;53.380;7.226;2023-05-21T13:03:35;11.50;;;9.70;;
25497;SDS011;13406;53.380;7.226;2023-05-21T13:06:01;12.07;;;9.83;;
25497;SDS011;13406;53.380;7.226;2023-05-21T13:08:29;11.43;;;9.30;;
25497;SDS011;13406;53.380;7.226;2023-05-21T13:10:55;11.23;;;8.90;;
25497;SDS011;13406;53.380;7.226;2023-05-21T13:13:20;13.40;;;9.80;;
25497;SDS011;13406;53.380;7.226;2023-05-21T13:15:45;12.10;;;9.70;;
25497;SDS011;13406;53.380;7.226;2023-05-21T13:18:11;13.70;;;9.47;;
25497;SDS011;13406;53.380;7.226;2023-05-21T13:20:36;11.00;;;9.33;;
25497;SDS011;13406;53.380;7.226;2023-05-21T13:23:02;12.70;;;8.90;;
25497;SDS011;13406;53.380;7.226;2023-05-21T13:25:29;11.63;;;9.30;;
25497;SDS011;13406;53.380;7.226;2023-05-21T13:27:57;14.53;;;11.03;;
25497;SDS011;13406;53.380;7.226;2023-05-21T13:30:25;11.90;;;10.30;;
25497;SDS011;13406;53.380;7.226;2023-05-21T13:32:51;17.03;;;12.27;;
25497;SDS011;13406;53.380;7.226;2023-05-21T13:35:16;12.33;;;11.00;;
25497;SDS011;13406;53.380;7.226;2023-05-21T13:37:42;14.70;;;11.80;;
25497;SDS011;13406;53.380;7.226;2023-05-21T13:40:08;15.70;;;10.70;;
25497;SDS011;13406;53.380;7.226;2023-05-21T13:42:41;13.30;;;10.70;;
25497;SDS011;13406;53.380;7.226;2023-05-21T13:45:11;13.30;;;10.97;;
25497;SDS011;13406;53.380;7.226;2023-05-21T13:47:37;11.57;;;8.43;;
25497;SDS011;13406;53.380;7.226;2023-05-21T13:50:04;11.90;;;9.40;;
25497;SDS011;13406;53.380;7.226;2023-05-21T13:52:30;12.90;;;9.97;;
25497;SDS011;13406;53.380;7.226;2023-05-21T13:54:55;14.23;;;9.90;;
25497;SDS011;13406;53.380;7.226;2023-05-21T13:57:21;9.27;;;8.27;;
25497;SDS011;13406;53.380;7.226;2023-05-21T13:59:46;12.73;;;9.47;;
25497;SDS011;13406;53.380;7.226;2023-05-21T14:02:14;11.17;;;8.60;;
25497;SDS011;13406;53.380;7.226;2023-05-21T14:04:39;11.17;;;8.73;;
25497;SDS011;13406;53.380;7.226;2023-05-21T14:07:05;14.80;;;11.10;;
25497;SDS011;13406;53.380;7.226;2023-05-21T14:09:31;10.70;;;9.40;;
25497;SDS011;13406;53.380;7.226;2023-05-21T14:11:56;13.33;;;9.60;;
25497;SDS011;13406;53.380;7.226;2023-05-21T14:14:22;15.00;;;10.20;;
25497;SDS011;13406;53.380;7.226;2023-05-21T14:16:48;14.73;;;11.60;;
25497;SDS011;13406;53.380;7.226;2023-05-21T14:19:16;18.13;;;11.60;;
25497;SDS011;13406;53.380;7.226;2023-05-21T14:21:42;19.70;;;11.60;;
25497;SDS011;13406;53.380;7.226;2023-05-21T14:24:07;18.33;;;10.70;;
25497;SDS011;13406;53.380;7.226;2023-05-21T14:26:33;16.17;;;11.27;;
25497;SDS011;13406;53.380;7.226;2023-05-21T14:29:01;12.87;;;10.20;;
25497;SDS011;13406;53.380;7.226;2023-05-21T14:31:26;13.20;;;9.30;;
25497;SDS011;13406;53.380;7.226;2023-05-21T14:33:52;11.40;;;8.90;;
25497;SDS011;13406;53.380;7.226;2023-05-21T14:36:17;12.77;;;8.80;;
25497;SDS011;13406;53.380;7.226;2023-05-21T14:38:43;12.57;;;8.17;;
25497;SDS011;13406;53.380;7.226;2023-05-21T14:41:08;15.73;;;11.00;;
25497;SDS011;13406;53.380;7.226;2023-05-21T14:43:34;23.77;;;10.47;;
25497;SDS011;13406;53.380;7.226;2023-05-21T14:46:00;11.00;;;8.67;;
25497;SDS011;13406;53.380;7.226;2023-05-21T14:48:25;13.30;;;9.47;;
25497;SDS011;13406;53.380;7.226;2023-05-21T14:50:51;11.80;;;8.23;;
25497;SDS011;13406;53.380;7.226;2023-05-21T14:53:17;9.73;;;8.33;;
25497;SDS011;13406;53.380;7.226;2023-05-21T14:55:43;11.00;;;9.50;;
25497;SDS011;13406;53.380;7.226;2023-05-21T14:58:09;11.37;;;8.73;;
25497;SDS011;13406;53.380;7.226;2023-05-21T15:00:35;16.37;;;9.43;;